Time;durP1;ratioP1;P1;durP2;ratioP2;P2;SDS_P1;SDS_P2;PMS_P1;PMS_P2;Temp;Humidity;BMP_temperature;BMP_pressure;BME280_temperature;BME280_humidity;BME280_pressure;Samples;Min_cycle;Max_cycle;Signal;HPM_P1;HPM_P2
2022/04/27 00:02:11;;;;;;;1.60;0.95;;;9.30;99.90;;;;;;4999056;28;20495;-73
2022/04/27 00:04:37;;;;;;;1.48;0.55;;;9.30;99.90;;;;;;5008336;28;20033;-73
2022/04/27 00:07:04;;;;;;;0.82;0.50;;;9.20;99.90;;;;;;5006139;28;20046;-73
2022/04/27 00:09:30;;;;;;;4.25;0.70;;;9.20;99.90;;;;;;5003236;28;20500;-73
2022/04/27 00:12:00;;;;;;;3.88;1.33;;;9.20;99.90;;;;;;5007355;28;20030;-72
2022/04/27 00:14:30;;;;;;;2.88;0.57;;;9.30;99.90;;;;;;5005011;28;20664;-72
2022/04/27 00:16:56;;;;;;;1.70;0.88;;;9.30;99.90;;;;;;5004252;28;20496;-72
2022/04/27 00:19:23;;;;;;;2.17;0.75;;;9.30;99.90;;;;;;5005456;28;20393;-73
2022/04/27 00:21:48;;;;;;;3.40;0.93;;;9.30;99.90;;;;;;5007931;28;20038;-73
2022/04/27 00:24:14;;;;;;;1.25;0.60;;;9.30;99.90;;;;;;5004083;28;20036;-73
2022/04/27 00:26:40;;;;;;;1.98;0.80;;;9.30;99.90;;;;;;5010071;28;20506;-72
2022/04/27 00:29:06;;;;;;;1.08;0.52;;;9.30;99.90;;;;;;5005021;28;20042;-73
2022/04/27 00:31:31;;;;;;;2.28;0.70;;;9.20;99.90;;;;;;5005276;28;20124;-73
2022/04/27 00:34:00;;;;;;;2.30;1.00;;;9.20;99.90;;;;;;5003950;28;20503;-73
2022/04/27 00:36:27;;;;;;;1.90;1.10;;;9.20;99.90;;;;;;5003028;28;20026;-72
2022/04/27 00:38:52;;;;;;;2.70;1.15;;;9.10;99.90;;;;;;5004490;28;20404;-72
2022/04/27 00:41:18;;;;;;;2.55;0.88;;;9.00;99.90;;;;;;4995944;28;20034;-72
2022/04/27 00:43:44;;;;;;;1.17;0.63;;;8.80;99.90;;;;;;5005263;28;20399;-72
2022/04/27 00:46:10;;;;;;;2.88;0.70;;;8.90;99.90;;;;;;5004977;28;20034;-73
2022/04/27 00:48:39;;;;;;;1.00;0.60;;;9.00;99.90;;;;;;4999044;28;20030;-73
2022/04/27 00:51:05;;;;;;;1.75;0.52;;;9.00;99.90;;;;;;5003071;28;20039;-72
2022/04/27 00:53:31;;;;;;;2.08;0.75;;;8.90;99.90;;;;;;5001280;28;20030;-73
2022/04/27 00:55:59;;;;;;;3.00;0.60;;;8.70;99.90;;;;;;5002482;28;20464;-72
2022/04/27 00:58:25;;;;;;;2.70;0.70;;;8.70;99.90;;;;;;4999058;28;20578;-72
2022/04/27 01:00:52;;;;;;;3.97;1.15;;;8.70;99.90;;;;;;5008183;28;20062;-73
2022/04/27 01:03:19;;;;;;;2.20;0.40;;;8.80;99.90;;;;;;4997585;28;20034;-73
2022/04/27 01:05:47;;;;;;;1.33;0.60;;;8.60;99.90;;;;;;5005703;28;20523;-73
2022/04/27 01:08:16;;;;;;;1.23;0.50;;;8.50;99.90;;;;;;5003942;28;20042;-73
2022/04/27 01:10:46;;;;;;;2.58;0.65;;;8.40;99.90;;;;;;5007440;28;20046;-73
2022/04/27 01:13:13;;;;;;;1.98;0.90;;;8.50;99.90;;;;;;5008026;28;20493;-73
2022/04/27 01:15:39;;;;;;;1.08;0.70;;;8.80;99.90;;;;;;5007781;28;20057;-73
2022/04/27 01:18:06;;;;;;;3.58;0.80;;;8.80;99.90;;;;;;5005387;28;20287;-73
2022/04/27 01:20:51;;;;;;;1.80;0.60;;;8.60;99.90;;;;;;5001860;28;20075;-73
2022/04/27 01:23:16;;;;;;;1.60;0.70;;;8.40;99.90;;;;;;5005423;28;20081;-73
2022/04/27 01:25:48;;;;;;;1.77;0.80;;;8.60;99.90;;;;;;5005020;28;20448;-74
2022/04/27 01:28:15;;;;;;;1.33;0.68;;;8.70;99.90;;;;;;5003321;28;20045;-74
2022/04/27 01:30:42;;;;;;;1.83;0.95;;;8.50;99.90;;;;;;4999427;28;20087;-74
2022/04/27 01:33:08;;;;;;;3.55;1.17;;;8.40;99.90;;;;;;5006449;28;20044;-74
2022/04/27 01:35:34;;;;;;;1.55;0.70;;;8.50;99.90;;;;;;5006482;28;20117;-74
2022/04/27 01:38:03;;;;;;;4.50;0.85;;;8.30;99.90;;;;;;5006770;28;20502;-73
2022/04/27 01:40:29;;;;;;;2.15;0.98;;;8.40;99.90;;;;;;5003419;28;20153;-73
2022/04/27 01:42:55;;;;;;;1.50;0.70;;;8.40;99.90;;;;;;5000360;28;20034;-73
2022/04/27 01:45:21;;;;;;;1.52;0.73;;;8.30;99.90;;;;;;5005287;28;20396;-73
2022/04/27 01:47:47;;;;;;;4.32;0.80;;;8.20;99.90;;;;;;5004151;28;20087;-73
2022/04/27 01:50:13;;;;;;;2.60;0.68;;;8.30;99.90;;;;;;5004571;28;20034;-73
2022/04/27 01:55:22;;;;;;;1.65;0.98;;;8.50;99.90;;;;;;5007013;28;20057;-73
2022/04/27 01:57:48;;;;;;;1.40;0.73;;;8.40;99.90;;;;;;5000590;28;20422;-73
2022/04/27 02:00:15;;;;;;;2.33;1.00;;;8.40;99.90;;;;;;4998613;28;20109;-73
2022/04/27 02:02:41;;;;;;;1.85;0.73;;;8.30;99.90;;;;;;5006481;28;20042;-73
2022/04/27 02:05:07;;;;;;;9.60;1.33;;;8.40;99.90;;;;;;4995209;28;20056;-73
2022/04/27 02:07:33;;;;;;;1.58;0.85;;;8.30;99.90;;;;;;5001801;28;20115;-73
2022/04/27 02:09:59;;;;;;;1.30;0.65;;;8.30;99.90;;;;;;5006191;28;20160;-73
2022/04/27 02:12:24;;;;;;;3.25;0.80;;;8.20;99.90;;;;;;4996554;28;20065;-73
2022/04/27 02:14:50;;;;;;;1.10;0.55;;;8.00;99.90;;;;;;5007572;28;20110;-73
2022/04/27 02:17:16;;;;;;;3.05;0.77;;;8.20;99.90;;;;;;5004941;28;20033;-73
2022/04/27 02:19:41;;;;;;;2.35;1.20;;;8.00;99.90;;;;;;5006754;28;20056;-73
2022/04/27 02:22:07;;;;;;;1.77;0.80;;;8.20;99.90;;;;;;5007944;28;20125;-73
2022/04/27 02:24:33;;;;;;;2.00;0.98;;;8.30;99.90;;;;;;5006233;28;20030;-73
2022/04/27 02:26:58;;;;;;;2.97;1.25;;;8.20;99.90;;;;;;4994280;28;20484;-73
2022/04/27 02:29:24;;;;;;;2.15;0.80;;;8.30;99.90;;;;;;5002951;28;20026;-73
2022/04/27 02:31:51;;;;;;;1.65;0.77;;;8.20;99.90;;;;;;4997599;28;20030;-74
2022/04/27 02:34:16;;;;;;;2.33;1.13;;;8.10;99.90;;;;;;5003506;28;20078;-73
2022/04/27 02:36:42;;;;;;;3.13;0.90;;;8.20;99.90;;;;;;5003804;28;20935;-73
2022/04/27 02:39:09;;;;;;;9.00;1.10;;;8.10;99.90;;;;;;5003947;28;20435;-73
2022/04/27 02:41:35;;;;;;;2.17;0.88;;;8.00;99.90;;;;;;5011040;28;20034;-73
2022/04/27 02:44:01;;;;;;;1.55;0.77;;;8.00;99.90;;;;;;5005876;28;20072;-73
2022/04/27 02:46:27;;;;;;;2.35;1.02;;;8.10;99.90;;;;;;5010729;28;20042;-73
2022/04/27 02:51:49;;;;;;;2.33;0.90;;;7.90;99.90;;;;;;5007320;28;20100;-73
2022/04/27 02:54:19;;;;;;;1.85;0.93;;;8.20;99.90;;;;;;5006353;28;20058;-73
2022/04/27 02:56:45;;;;;;;3.30;1.20;;;8.10;99.90;;;;;;5010339;28;20084;-73
2022/04/27 02:59:10;;;;;;;1.40;0.65;;;8.10;99.90;;;;;;5008255;28;20033;-74
2022/04/27 03:01:38;;;;;;;1.48;0.73;;;8.10;99.90;;;;;;5001906;28;20037;-72
2022/04/27 03:04:07;;;;;;;4.00;1.63;;;8.20;99.90;;;;;;5001185;28;20124;-73
2022/04/27 03:06:33;;;;;;;3.05;0.80;;;8.10;99.90;;;;;;5002942;28;20049;-72
2022/04/27 03:08:59;;;;;;;1.77;0.80;;;8.00;99.90;;;;;;4979994;28;20120;-73
2022/04/27 03:11:25;;;;;;;2.20;0.90;;;7.70;99.90;;;;;;4989924;28;20100;-73
2022/04/27 03:13:51;;;;;;;2.72;1.10;;;7.80;99.90;;;;;;5000542;28;20759;-73
2022/04/27 03:16:17;;;;;;;2.53;0.90;;;7.90;99.90;;;;;;4998898;28;20129;-73
2022/04/27 03:18:43;;;;;;;2.38;0.90;;;8.00;99.90;;;;;;4999870;28;20041;-72
2022/04/27 03:21:12;;;;;;;2.30;0.82;;;7.90;99.90;;;;;;4997216;28;20423;-72
2022/04/27 03:23:38;;;;;;;1.95;0.88;;;7.90;99.90;;;;;;5002931;28;20506;-73
2022/04/27 03:26:04;;;;;;;5.90;1.05;;;7.60;99.90;;;;;;4998586;28;20443;-73
2022/04/27 03:28:30;;;;;;;1.83;0.75;;;7.80;99.90;;;;;;5005979;28;20030;-72
2022/04/27 03:30:55;;;;;;;2.13;0.90;;;7.80;99.90;;;;;;4999679;28;20034;-72
2022/04/27 03:33:21;;;;;;;1.83;0.80;;;7.70;99.90;;;;;;4999564;28;20066;-73
2022/04/27 03:35:47;;;;;;;2.67;1.00;;;7.70;99.90;;;;;;4994753;28;20048;-73
2022/04/27 03:38:18;;;;;;;2.33;1.10;;;7.60;99.90;;;;;;5006733;28;20030;-72
2022/04/27 03:40:46;;;;;;;4.40;1.65;;;7.40;99.90;;;;;;4999708;28;20027;-72
2022/04/27 03:43:11;;;;;;;1.95;0.73;;;7.30;99.90;;;;;;5001477;28;20026;-73
2022/04/27 03:45:37;;;;;;;3.03;1.10;;;7.10;99.90;;;;;;4991611;28;20600;-72
2022/04/27 03:48:03;;;;;;;2.38;1.00;;;7.00;99.90;;;;;;4999569;28;20465;-71
2022/04/27 03:50:29;;;;;;;2.50;0.90;;;6.90;99.90;;;;;;4997884;28;20034;-72
2022/04/27 03:52:54;;;;;;;2.85;1.40;;;7.00;99.90;;;;;;5004216;28;20519;-71
2022/04/27 03:55:20;;;;;;;1.88;0.93;;;7.00;99.90;;;;;;4996788;28;20065;-71
2022/04/27 03:57:46;;;;;;;3.03;1.20;;;7.00;99.90;;;;;;5007161;28;20034;-71
2022/04/27 04:00:12;;;;;;;3.35;0.98;;;6.90;99.90;;;;;;4990440;28;20057;-71
2022/04/27 04:02:38;;;;;;;1.77;1.00;;;6.80;99.90;;;;;;4999323;28;20076;-72
2022/04/27 04:05:07;;;;;;;2.50;1.00;;;6.80;99.90;;;;;;5000494;28;20030;-71
2022/04/27 04:07:33;;;;;;;1.95;1.08;;;6.90;99.90;;;;;;5003444;28;20060;-72
2022/04/27 04:09:59;;;;;;;4.80;1.20;;;7.00;99.90;;;;;;4997000;28;20595;-72
2022/04/27 04:12:25;;;;;;;1.60;0.70;;;6.80;99.90;;;;;;4994137;28;20038;-71
2022/04/27 04:14:51;;;;;;;5.93;1.33;;;7.10;99.90;;;;;;4995333;28;20033;-72
2022/04/27 04:17:17;;;;;;;2.20;0.98;;;7.20;99.90;;;;;;4994946;28;20117;-72
2022/04/27 04:19:43;;;;;;;1.50;0.70;;;7.10;99.90;;;;;;5001517;28;20419;-72
2022/04/27 04:22:09;;;;;;;1.85;0.90;;;7.10;99.90;;;;;;4995344;28;20033;-71
2022/04/27 04:24:35;;;;;;;2.38;1.13;;;7.20;99.90;;;;;;4994866;28;20049;-71
2022/04/27 04:29:46;;;;;;;3.20;0.88;;;7.20;99.90;;;;;;4975008;28;20118;-72
2022/04/27 04:32:11;;;;;;;1.60;0.82;;;7.30;99.90;;;;;;4986628;28;20124;-74
2022/04/27 04:34:37;;;;;;;2.03;1.00;;;7.30;99.90;;;;;;4989590;28;20419;-74
2022/04/27 04:37:03;;;;;;;3.08;1.00;;;6.90;99.90;;;;;;4980680;28;20034;-71
2022/04/27 04:39:28;;;;;;;3.33;1.35;;;6.90;99.90;;;;;;4990860;28;20038;-72
2022/04/27 04:41:54;;;;;;;2.55;1.13;;;6.70;99.90;;;;;;4983540;28;20488;-71
2022/04/27 04:44:20;;;;;;;1.88;0.82;;;6.40;99.90;;;;;;4981697;28;20335;-72
2022/04/27 04:46:46;;;;;;;2.10;0.82;;;6.50;99.90;;;;;;4995504;28;20592;-72
2022/04/27 04:49:12;;;;;;;1.60;0.80;;;6.40;99.90;;;;;;4991220;28;20125;-71
2022/04/27 04:51:37;;;;;;;2.53;1.05;;;6.40;99.90;;;;;;4985085;28;20538;-74
2022/04/27 04:54:03;;;;;;;3.50;1.20;;;6.30;99.90;;;;;;4998817;28;20034;-72
2022/04/27 04:56:29;;;;;;;1.67;0.80;;;6.70;99.90;;;;;;5000482;28;20034;-72
2022/04/27 04:58:55;;;;;;;2.38;0.63;;;6.60;99.90;;;;;;4978873;28;20109;-72
2022/04/27 05:01:21;;;;;;;3.00;1.33;;;6.60;99.90;;;;;;4989852;28;20029;-72
2022/04/27 05:03:47;;;;;;;1.85;0.55;;;6.60;99.90;;;;;;5000912;28;20056;-74
2022/04/27 05:06:14;;;;;;;2.60;1.10;;;6.70;99.90;;;;;;4992955;28;20061;-71
2022/04/27 05:08:39;;;;;;;2.15;1.27;;;6.70;99.90;;;;;;4987880;28;20033;-72
2022/04/27 05:11:05;;;;;;;2.70;0.95;;;6.90;99.90;;;;;;4994603;28;20029;-72
2022/04/27 05:13:34;;;;;;;2.95;1.30;;;6.70;99.90;;;;;;4983036;28;20061;-73
2022/04/27 05:15:59;;;;;;;2.83;0.85;;;6.90;99.90;;;;;;4986666;28;20026;-73
2022/04/27 05:18:25;;;;;;;2.15;0.85;;;7.00;99.90;;;;;;5002077;28;20457;-72
2022/04/27 05:20:51;;;;;;;6.43;1.65;;;7.00;99.90;;;;;;4999862;28;20034;-73
2022/04/27 05:23:16;;;;;;;4.45;1.48;;;7.20;99.90;;;;;;4995062;28;20061;-73
2022/04/27 05:25:42;;;;;;;4.32;1.17;;;7.00;99.90;;;;;;4987532;28;20041;-72
2022/04/27 05:28:08;;;;;;;2.65;0.95;;;7.10;99.90;;;;;;4990581;28;20034;-73
2022/04/27 05:33:18;;;;;;;3.27;1.53;;;7.50;99.90;;;;;;4990911;28;20041;-72
2022/04/27 05:35:44;;;;;;;2.25;1.27;;;7.50;99.90;;;;;;4995779;28;20295;-74
2022/04/27 05:38:10;;;;;;;2.83;1.50;;;7.40;99.90;;;;;;5000266;28;20492;-71
2022/04/27 05:40:39;;;;;;;2.15;0.80;;;7.40;99.90;;;;;;4999025;28;20034;-74
2022/04/27 05:43:06;;;;;;;2.67;1.20;;;7.50;99.90;;;;;;5001789;28;20135;-74
2022/04/27 05:45:32;;;;;;;3.60;1.45;;;7.40;99.90;;;;;;4990082;28;20038;-74
2022/04/27 05:47:58;;;;;;;2.15;1.23;;;7.50;99.90;;;;;;4986415;28;20026;-74
2022/04/27 05:50:24;;;;;;;5.72;1.00;;;7.60;99.90;;;;;;4994470;28;20037;-74
2022/04/27 05:52:52;;;;;;;3.25;1.27;;;7.60;99.90;;;;;;4997083;28;20041;-74
2022/04/27 05:55:19;;;;;;;2.33;1.00;;;7.60;99.90;;;;;;4996780;28;20680;-74
2022/04/27 05:57:45;;;;;;;1.92;1.05;;;7.70;99.90;;;;;;4993556;28;20038;-75
2022/04/27 06:00:11;;;;;;;2.40;1.00;;;7.70;99.90;;;;;;4993933;28;20036;-74
2022/04/27 06:02:38;;;;;;;2.30;1.05;;;7.80;99.90;;;;;;5000783;28;20052;-74
2022/04/27 06:05:05;;;;;;;2.13;0.90;;;7.80;99.90;;;;;;4998746;28;20388;-74
2022/04/27 06:07:31;;;;;;;3.92;1.00;;;7.70;99.90;;;;;;4994427;28;20077;-75
2022/04/27 06:09:56;;;;;;;1.90;0.80;;;7.90;99.90;;;;;;5001610;28;20181;-74
2022/04/27 06:12:30;;;;;;;2.60;1.20;;;8.00;99.90;;;;;;5000949;28;20041;-74
2022/04/27 06:14:56;;;;;;;2.45;1.10;;;8.20;99.90;;;;;;4994242;28;20030;-74
2022/04/27 06:17:22;;;;;;;1.77;0.85;;;8.30;99.90;;;;;;4997401;28;20127;-74
2022/04/27 06:19:47;;;;;;;1.48;0.70;;;8.30;99.90;;;;;;4995709;28;20508;-74
2022/04/27 06:22:13;;;;;;;1.25;0.68;;;8.60;99.90;;;;;;4999931;28;20049;-74
2022/04/27 06:24:39;;;;;;;2.75;1.00;;;8.80;99.90;;;;;;4997102;28;20457;-74
2022/04/27 06:27:05;;;;;;;2.53;0.90;;;9.10;99.90;;;;;;5004640;28;20140;-74
2022/04/27 06:29:30;;;;;;;2.65;0.95;;;9.40;99.90;;;;;;4998436;28;20081;-74
2022/04/27 06:31:56;;;;;;;2.33;0.90;;;9.20;99.90;;;;;;4992242;28;20029;-74
2022/04/27 06:34:22;;;;;;;2.85;1.35;;;9.40;99.90;;;;;;5002467;28;20041;-75
2022/04/27 06:36:47;;;;;;;2.28;1.10;;;9.50;99.90;;;;;;5002624;28;20038;-74
2022/04/27 06:39:14;;;;;;;2.60;1.10;;;9.70;99.90;;;;;;4998828;28;20822;-74
2022/04/27 06:41:41;;;;;;;2.50;1.15;;;10.00;99.90;;;;;;5004573;28;20029;-74
2022/04/27 06:44:07;;;;;;;2.50;0.93;;;10.10;99.90;;;;;;5005364;28;20061;-74
2022/04/27 06:46:33;;;;;;;2.42;0.95;;;10.00;99.90;;;;;;5002953;28;20081;-74
2022/04/27 06:48:58;;;;;;;3.35;1.05;;;10.20;99.90;;;;;;4989918;28;20030;-74
2022/04/27 06:51:24;;;;;;;3.17;1.00;;;10.50;99.90;;;;;;4992358;28;20048;-74
2022/04/27 06:53:50;;;;;;;1.58;0.70;;;10.90;99.90;;;;;;4990868;28;20064;-74
2022/04/27 06:56:16;;;;;;;3.83;0.68;;;11.10;99.90;;;;;;4997997;28;20950;-74
2022/04/27 06:58:42;;;;;;;2.17;1.30;;;11.50;99.90;;;;;;5002421;28;20103;-74
2022/04/27 07:01:08;;;;;;;4.32;1.00;;;12.20;99.50;;;;;;4999511;28;20034;-74
2022/04/27 07:03:36;;;;;;;2.88;0.60;;;13.50;97.40;;;;;;5003558;28;20138;-75
2022/04/27 07:06:02;;;;;;;1.98;0.70;;;14.70;96.70;;;;;;4990558;28;20509;-74
2022/04/27 07:08:29;;;;;;;2.88;0.93;;;16.50;93.90;;;;;;4998217;28;20042;-74
2022/04/27 07:10:55;;;;;;;1.95;0.80;;;17.30;89.60;;;;;;4997817;28;20034;-73
2022/04/27 07:13:22;;;;;;;1.83;0.70;;;17.30;88.00;;;;;;5002840;28;20041;-75
2022/04/27 07:15:48;;;;;;;1.83;0.85;;;18.70;85.20;;;;;;4978218;28;20046;-75
2022/04/27 07:18:14;;;;;;;1.88;0.73;;;19.30;83.90;;;;;;4981866;28;20021;-73
2022/04/27 07:20:40;;;;;;;2.70;1.00;;;18.50;82.80;;;;;;4991858;28;20041;-74
2022/04/27 07:23:06;;;;;;;1.58;0.70;;;18.00;84.10;;;;;;4992308;28;20153;-74
2022/04/27 07:25:32;;;;;;;1.08;0.73;;;17.60;86.40;;;;;;4998747;28;20075;-73
2022/04/27 07:27:58;;;;;;;2.38;1.00;;;17.60;84.70;;;;;;5002771;28;20038;-74
2022/04/27 07:30:24;;;;;;;1.58;0.82;;;17.60;85.10;;;;;;4998672;28;20075;-74
2022/04/27 07:32:51;;;;;;;3.03;1.00;;;16.70;84.70;;;;;;4996547;28;20052;-75
2022/04/27 07:35:18;;;;;;;6.10;1.00;;;17.70;84.80;;;;;;5001764;28;20030;-74
2022/04/27 07:37:44;;;;;;;4.68;1.38;;;19.20;84.40;;;;;;5004518;28;20113;-73
2022/04/27 07:40:11;;;;;;;1.65;1.00;;;19.30;82.60;;;;;;4996664;28;20669;-73
2022/04/27 07:42:38;;;;;;;3.20;0.88;;;16.30;86.70;;;;;;4997009;28;20042;-73
2022/04/27 07:45:08;;;;;;;1.48;0.75;;;14.10;91.30;;;;;;5002899;28;20034;-74
2022/04/27 07:47:41;;;;;;;2.85;1.30;;;12.60;93.00;;;;;;4990927;28;20039;-74
2022/04/27 07:50:09;;;;;;;3.00;1.33;;;12.40;94.90;;;;;;5002238;28;20522;-74
2022/04/27 07:52:35;;;;;;;1.77;0.70;;;12.30;95.50;;;;;;4998252;28;20539;-74
2022/04/27 07:55:01;;;;;;;3.78;1.13;;;11.50;95.60;;;;;;4996961;28;20042;-74
2022/04/27 07:57:33;;;;;;;2.08;1.00;;;11.50;95.60;;;;;;4989994;28;21147;-74
2022/04/27 08:00:00;;;;;;;1.70;1.00;;;11.50;96.20;;;;;;4992793;28;20155;-74
2022/04/27 08:02:26;;;;;;;1.63;0.77;;;11.40;96.20;;;;;;4993166;28;20143;-74
2022/04/27 08:04:52;;;;;;;2.13;0.90;;;11.40;94.90;;;;;;4998868;28;20064;-74
2022/04/27 08:07:17;;;;;;;3.10;1.40;;;11.40;96.10;;;;;;5004036;28;20133;-74
2022/04/27 08:09:43;;;;;;;5.05;1.80;;;11.50;95.60;;;;;;5002418;28;21058;-74
2022/04/27 08:12:09;;;;;;;2.33;1.20;;;11.70;96.10;;;;;;4998867;28;20018;-74
2022/04/27 08:14:36;;;;;;;2.03;0.85;;;11.60;94.60;;;;;;4992149;28;20041;-74
2022/04/27 08:17:02;;;;;;;2.65;0.90;;;11.70;94.50;;;;;;4993545;28;20034;-74
2022/04/27 08:19:28;;;;;;;2.60;0.90;;;11.70;94.40;;;;;;5002589;28;20076;-74
2022/04/27 08:21:55;;;;;;;1.27;0.65;;;11.90;94.10;;;;;;5000654;28;20482;-74
2022/04/27 08:24:21;;;;;;;3.58;1.00;;;12.00;93.60;;;;;;4999075;28;20045;-74
2022/04/27 08:26:48;;;;;;;2.67;0.90;;;13.00;93.20;;;;;;4989702;28;20042;-74
2022/04/27 08:29:14;;;;;;;2.60;1.17;;;15.50;90.70;;;;;;4989993;28;20099;-73
2022/04/27 08:31:40;;;;;;;3.53;0.93;;;16.10;88.10;;;;;;4994190;28;20564;-74
2022/04/27 08:34:06;;;;;;;3.92;1.25;;;16.60;88.10;;;;;;4989900;28;20023;-75
2022/04/27 08:36:32;;;;;;;2.75;1.02;;;17.00;87.70;;;;;;4990957;28;20041;-74
2022/04/27 08:39:01;;;;;;;1.83;0.80;;;17.40;85.60;;;;;;4997144;28;20151;-74
2022/04/27 08:41:28;;;;;;;3.42;0.90;;;17.40;85.90;;;;;;5003607;28;20073;-74
2022/04/27 08:43:55;;;;;;;5.15;2.78;;;18.50;83.80;;;;;;4999787;28;20041;-74
2022/04/27 08:46:21;;;;;;;4.75;2.40;;;18.80;84.50;;;;;;5002692;28;20129;-74
2022/04/27 08:48:50;;;;;;;2.72;1.27;;;18.80;83.70;;;;;;4988761;28;20157;-73
2022/04/27 08:51:16;;;;;;;3.13;1.02;;;17.50;84.90;;;;;;4996120;28;20638;-73
2022/04/27 08:53:43;;;;;;;2.30;0.82;;;16.30;88.40;;;;;;4979271;28;20034;-75
2022/04/27 08:56:09;;;;;;;7.35;4.07;;;15.80;86.10;;;;;;4978637;28;20580;-74
2022/04/27 08:58:34;;;;;;;2.17;0.93;;;15.30;88.00;;;;;;4977893;28;20552;-74
2022/04/27 09:01:00;;;;;;;3.58;1.63;;;14.70;90.00;;;;;;4997571;28;20029;-73
2022/04/27 09:03:39;;;;;;;7.05;4.20;;;14.80;90.00;;;;;;4981310;28;20405;-73
2022/04/27 09:06:13;;;;;;;12.07;6.90;;;15.50;90.00;;;;;;4981058;28;20042;-74
2022/04/27 09:08:43;;;;;;;2.58;1.50;;;15.50;90.10;;;;;;4993890;28;20029;-74
2022/04/27 09:11:20;;;;;;;3.65;1.05;;;15.30;86.50;;;;;;4997031;28;20396;-74
2022/04/27 09:13:56;;;;;;;4.93;1.77;;;15.20;87.60;;;;;;4996519;28;20464;-74
2022/04/27 09:16:25;;;;;;;1.88;0.75;;;14.90;87.20;;;;;;4998926;28;20037;-74
2022/04/27 09:22:04;;;;;;;2.22;0.90;;;14.80;89.20;;;;;;5000165;28;20107;-74
2022/04/27 09:24:47;;;;;;;2.40;0.80;;;14.60;87.40;;;;;;4997672;28;20428;-74
2022/04/27 09:27:16;;;;;;;1.90;0.80;;;14.60;90.30;;;;;;4983574;28;20477;-74
2022/04/27 09:29:42;;;;;;;3.47;0.85;;;14.70;88.10;;;;;;4996493;28;20029;-74
2022/04/27 09:32:08;;;;;;;3.38;0.95;;;14.80;89.60;;;;;;4998605;28;20030;-74
2022/04/27 09:34:44;;;;;;;1.85;1.00;;;15.00;88.50;;;;;;4997751;28;20519;-74
2022/04/27 09:37:16;;;;;;;2.55;1.10;;;15.10;86.10;;;;;;4998014;28;20113;-74
2022/04/27 09:39:46;;;;;;;2.53;1.20;;;15.50;87.30;;;;;;4973845;28;20104;-73
2022/04/27 09:42:13;;;;;;;1.35;0.70;;;15.70;88.10;;;;;;4978440;28;20041;-74
2022/04/27 09:44:40;;;;;;;2.17;0.80;;;15.60;84.10;;;;;;4984796;28;20093;-74
2022/04/27 09:47:07;;;;;;;2.72;1.27;;;15.60;84.20;;;;;;5001547;28;20034;-74
2022/04/27 09:49:36;;;;;;;2.60;0.90;;;15.70;84.90;;;;;;5002858;28;20549;-75
2022/04/27 09:52:03;;;;;;;2.53;1.00;;;15.80;85.30;;;;;;5006459;28;20030;-74
2022/04/27 09:54:31;;;;;;;3.22;1.05;;;15.90;84.40;;;;;;4995250;28;20592;-73
2022/04/27 09:57:02;;;;;;;3.33;0.90;;;15.90;84.20;;;;;;4993455;28;20022;-74
2022/04/27 09:59:31;;;;;;;3.17;0.88;;;16.10;85.40;;;;;;4990361;28;20062;-74
2022/04/27 10:02:08;;;;;;;2.35;1.02;;;16.40;85.00;;;;;;4996175;28;20535;-74
2022/04/27 10:04:35;;;;;;;1.58;0.85;;;16.30;83.00;;;;;;5005842;28;20487;-74
2022/04/27 10:07:15;;;;;;;2.67;1.20;;;16.00;80.70;;;;;;5003045;28;20152;-73
2022/04/27 10:09:41;;;;;;;3.00;0.80;;;16.20;82.70;;;;;;5004319;28;20114;-74
2022/04/27 10:12:11;;;;;;;2.75;0.85;;;16.60;84.70;;;;;;5004581;28;20118;-74
2022/04/27 10:14:37;;;;;;;1.77;0.88;;;17.00;83.30;;;;;;4999926;28;20026;-75
2022/04/27 10:17:04;;;;;;;4.88;0.90;;;16.90;83.20;;;;;;5001545;28;20168;-73
2022/04/27 10:19:30;;;;;;;2.15;0.88;;;16.90;81.60;;;;;;5005819;28;20065;-74
2022/04/27 10:21:56;;;;;;;3.78;1.00;;;17.10;83.20;;;;;;5004152;28;20512;-74
2022/04/27 10:24:34;;;;;;;2.05;1.00;;;16.90;81.00;;;;;;5005852;28;20204;-74
2022/04/27 10:27:34;;;;;;;2.40;0.95;;;16.90;81.80;;;;;;5005182;28;20173;-74
2022/04/27 10:30:10;;;;;;;1.75;0.90;;;17.00;86.90;;;;;;4998022;28;20428;-74
2022/04/27 10:32:46;;;;;;;3.22;0.80;;;17.30;85.50;;;;;;4999083;28;20104;-74
2022/04/27 10:35:11;;;;;;;3.55;0.90;;;17.00;84.40;;;;;;5002407;28;20040;-74
2022/04/27 10:37:57;;;;;;;1.55;0.80;;;17.00;83.80;;;;;;4997315;28;20038;-74
2022/04/27 10:40:32;;;;;;;2.17;1.10;;;17.00;85.20;;;;;;4994514;28;20037;-74
2022/04/27 10:43:02;;;;;;;2.22;1.05;;;17.20;82.10;;;;;;5004562;28;20036;-74
2022/04/27 10:45:28;;;;;;;2.55;0.95;;;17.10;80.90;;;;;;5000640;28;20381;-74
2022/04/27 10:47:54;;;;;;;2.92;0.90;;;17.20;83.10;;;;;;5001422;28;20131;-74
2022/04/27 10:50:23;;;;;;;1.58;0.90;;;17.50;81.80;;;;;;5004959;28;20077;-74
2022/04/27 10:52:51;;;;;;;2.72;0.75;;;17.50;84.30;;;;;;5004459;28;20500;-74
2022/04/27 10:55:35;;;;;;;2.67;0.68;;;17.60;82.60;;;;;;5004793;28;20034;-74
2022/04/27 10:58:24;;;;;;;1.20;0.70;;;17.90;86.30;;;;;;5002489;28;20167;-74
2022/04/27 11:01:02;;;;;;;2.03;1.00;;;18.20;82.90;;;;;;4998688;28;20040;-74
2022/04/27 11:03:29;;;;;;;2.97;1.10;;;17.80;83.10;;;;;;4992249;28;20483;-74
2022/04/27 11:05:59;;;;;;;2.88;0.70;;;17.90;82.30;;;;;;5000333;28;20030;-74
2022/04/27 11:09:08;;;;;;;5.45;1.25;;;17.80;80.10;;;;;;4996827;28;20046;-74
2022/04/27 11:11:52;;;;;;;2.40;1.05;;;18.10;80.70;;;;;;4999337;28;20084;-74
2022/04/27 11:14:37;;;;;;;3.65;1.00;;;18.60;83.60;;;;;;5001992;28;20173;-74
2022/04/27 11:17:04;;;;;;;1.73;1.13;;;18.50;81.50;;;;;;5002793;28;20503;-74
2022/04/27 11:19:38;;;;;;;1.33;0.77;;;18.80;81.30;;;;;;4997262;28;20034;-74
2022/04/27 11:22:15;;;;;;;1.30;0.55;;;18.60;78.10;;;;;;4992773;28;20068;-75
2022/04/27 11:24:48;;;;;;;1.70;0.70;;;18.50;77.70;;;;;;4992540;28;20037;-74
2022/04/27 11:27:22;;;;;;;1.98;1.02;;;18.30;76.00;;;;;;4991265;28;20042;-75
2022/04/27 11:29:51;;;;;;;1.17;0.68;;;18.50;76.90;;;;;;5004127;28;20175;-75
2022/04/27 11:32:16;;;;;;;2.75;0.95;;;18.70;79.30;;;;;;5005738;28;20038;-75
2022/04/27 11:34:48;;;;;;;1.63;0.75;;;19.20;82.00;;;;;;5000645;28;20026;-74
2022/04/27 11:37:16;;;;;;;2.15;0.90;;;19.30;76.40;;;;;;4998865;28;20030;-74
2022/04/27 11:39:41;;;;;;;1.33;0.77;;;19.10;75.80;;;;;;4996221;28;20103;-74
2022/04/27 11:42:10;;;;;;;2.05;0.80;;;18.70;75.10;;;;;;5002272;28;20539;-74
2022/04/27 11:44:36;;;;;;;2.08;0.80;;;19.10;76.60;;;;;;4986213;28;20477;-74
2022/04/27 11:47:02;;;;;;;1.83;1.00;;;19.40;75.60;;;;;;4977595;28;21021;-74
2022/04/27 11:49:28;;;;;;;1.80;0.82;;;19.40;74.30;;;;;;4977321;28;20503;-74
2022/04/27 11:51:55;;;;;;;1.25;0.50;;;19.80;77.50;;;;;;4990398;28;20030;-74
2022/04/27 11:54:28;;;;;;;1.52;0.57;;;19.80;75.20;;;;;;4997676;28;20042;-74
2022/04/27 11:57:00;;;;;;;1.45;0.60;;;19.10;69.50;;;;;;4998588;28;20061;-74
2022/04/27 11:59:39;;;;;;;1.60;0.75;;;19.10;70.90;;;;;;5003449;28;20045;-74
2022/04/27 12:02:05;;;;;;;1.45;0.60;;;19.20;70.00;;;;;;5003050;28;20080;-74
2022/04/27 12:04:30;;;;;;;1.58;0.60;;;19.50;71.20;;;;;;4994786;28;20038;-74
2022/04/27 12:06:56;;;;;;;1.33;0.70;;;19.10;69.50;;;;;;5001188;28;20401;-74
2022/04/27 12:09:22;;;;;;;0.90;0.50;;;19.40;71.30;;;;;;5003075;28;20673;-74
2022/04/27 12:11:48;;;;;;;1.13;0.50;;;19.70;71.00;;;;;;4999683;28;20034;-74
2022/04/27 12:14:17;;;;;;;1.48;0.60;;;19.30;66.90;;;;;;4990925;28;20027;-74
2022/04/27 12:16:43;;;;;;;1.63;0.93;;;19.50;71.00;;;;;;4997051;28;20053;-74
2022/04/27 12:19:08;;;;;;;2.60;0.65;;;19.80;69.70;;;;;;5003234;28;20638;-74
2022/04/27 12:21:34;;;;;;;2.75;0.90;;;20.10;70.40;;;;;;5001669;28;20433;-73
2022/04/27 12:24:17;;;;;;;4.10;0.80;;;19.90;67.10;;;;;;4999330;28;20101;-74
2022/04/27 12:26:42;;;;;;;3.75;0.65;;;19.90;69.90;;;;;;4989811;28;20054;-73
2022/04/27 12:29:08;;;;;;;1.63;0.68;;;20.00;68.00;;;;;;4994108;28;20073;-74
2022/04/27 12:31:37;;;;;;;0.88;0.63;;;20.10;69.90;;;;;;5004732;28;20037;-73
2022/04/27 12:37:29;;;;;;;1.08;0.65;;;20.30;71.70;;;;;;5006800;28;20100;-73
2022/04/27 12:39:39;;;;;;;4.40;0.40;;;20.20;70.40;;;;;;4999604;28;20048;-74
2022/04/27 12:42:10;;;;;;;1.35;0.60;;;20.30;68.80;;;;;;5002924;28;20026;-74
2022/04/27 12:44:41;;;;;;;2.67;0.65;;;20.50;71.50;;;;;;4998171;28;20030;-73
2022/04/27 12:47:09;;;;;;;4.35;0.90;;;20.30;67.80;;;;;;4994084;28;20033;-74
2022/04/27 12:49:36;;;;;;;1.10;0.60;;;20.40;70.40;;;;;;4993703;28;20452;-74
2022/04/27 12:52:18;;;;;;;2.30;0.90;;;20.80;69.40;;;;;;5001724;28;20104;-74
2022/04/27 12:54:48;;;;;;;2.40;0.80;;;20.60;70.50;;;;;;5001109;28;20030;-74
2022/04/27 12:57:14;;;;;;;0.88;0.40;;;20.70;71.90;;;;;;5000297;28;20060;-74
2022/04/27 12:59:57;;;;;;;3.40;0.77;;;20.80;70.20;;;;;;4999544;28;20038;-74
2022/04/27 13:02:24;;;;;;;1.88;0.65;;;20.80;70.00;;;;;;4994772;28;20073;-73
2022/04/27 13:04:51;;;;;;;1.10;0.50;;;21.00;68.40;;;;;;5001488;28;20037;-74
2022/04/27 13:07:20;;;;;;;1.02;0.50;;;20.80;67.50;;;;;;4995383;28;20137;-74
2022/04/27 13:12:31;;;;;;;1.23;0.60;;;20.60;70.40;;;;;;4994044;28;20107;-74
2022/04/27 13:14:58;;;;;;;1.10;0.60;;;20.80;70.50;;;;;;5002376;28;20061;-74
2022/04/27 13:17:23;;;;;;;2.75;0.60;;;20.90;67.90;;;;;;4998217;28;20037;-74